sensor_id;sensor_type;location;lat;lon;timestamp;P1;durP1;ratioP1;P2;durP2;ratioP2
79220;SDS011;72175;52.118;5.406;2024-03-22T00:04:12;3.63;;;0.90;;
79220;SDS011;72175;52.118;5.406;2024-03-22T00:06:38;3.25;;;0.77;;
79220;SDS011;72175;52.118;5.406;2024-03-22T00:09:04;3.60;;;1.25;;
79220;SDS011;72175;52.118;5.406;2024-03-22T00:11:30;3.92;;;1.33;;
79220;SDS011;72175;52.118;5.406;2024-03-22T00:16:21;4.68;;;1.25;;
79220;SDS011;72175;52.118;5.406;2024-03-22T00:21:12;3.65;;;1.25;;
79220;SDS011;72175;52.118;5.406;2024-03-22T00:26:03;3.30;;;0.88;;
79220;SDS011;72175;52.118;5.406;2024-03-22T00:28:29;3.13;;;0.73;;
79220;SDS011;72175;52.118;5.406;2024-03-22T00:33:19;3.85;;;1.42;;
79220;SDS011;72175;52.118;5.406;2024-03-22T00:35:45;3.08;;;0.70;;
79220;SDS011;72175;52.118;5.406;2024-03-22T00:38:11;3.60;;;1.02;;
79220;SDS011;72175;52.118;5.406;2024-03-22T00:40:36;3.28;;;0.75;;
79220;SDS011;72175;52.118;5.406;2024-03-22T00:43:02;3.85;;;1.00;;
79220;SDS011;72175;52.118;5.406;2024-03-22T00:45:27;3.22;;;1.30;;
79220;SDS011;72175;52.118;5.406;2024-03-22T00:47:53;3.25;;;0.80;;
79220;SDS011;72175;52.118;5.406;2024-03-22T00:50:21;4.05;;;1.27;;
79220;SDS011;72175;52.118;5.406;2024-03-22T00:52:46;4.38;;;0.80;;
79220;SDS011;72175;52.118;5.406;2024-03-22T00:57:37;4.05;;;1.73;;
79220;SDS011;72175;52.118;5.406;2024-03-22T01:02:29;3.80;;;1.33;;
79220;SDS011;72175;52.118;5.406;2024-03-22T01:04:55;3.80;;;1.50;;
79220;SDS011;72175;52.118;5.406;2024-03-22T01:07:21;4.38;;;1.65;;
79220;SDS011;72175;52.118;5.406;2024-03-22T01:09:46;4.65;;;1.50;;
79220;SDS011;72175;52.118;5.406;2024-03-22T01:12:12;4.00;;;1.77;;
79220;SDS011;72175;52.118;5.406;2024-03-22T01:17:03;3.95;;;1.15;;
79220;SDS011;72175;52.118;5.406;2024-03-22T01:19:28;4.78;;;1.30;;
79220;SDS011;72175;52.118;5.406;2024-03-22T01:21:54;4.40;;;1.40;;
79220;SDS011;72175;52.118;5.406;2024-03-22T01:24:19;4.28;;;1.60;;
79220;SDS011;72175;52.118;5.406;2024-03-22T01:29:10;5.88;;;2.08;;
79220;SDS011;72175;52.118;5.406;2024-03-22T01:31:36;3.83;;;1.52;;
79220;SDS011;72175;52.118;5.406;2024-03-22T01:34:01;3.20;;;0.85;;
79220;SDS011;72175;52.118;5.406;2024-03-22T01:36:27;3.47;;;1.20;;
79220;SDS011;72175;52.118;5.406;2024-03-22T01:41:18;4.28;;;1.60;;
79220;SDS011;72175;52.118;5.406;2024-03-22T01:43:44;3.85;;;0.82;;
79220;SDS011;72175;52.118;5.406;2024-03-22T01:48:35;4.10;;;1.58;;
79220;SDS011;72175;52.118;5.406;2024-03-22T01:51:01;3.58;;;0.90;;
79220;SDS011;72175;52.118;5.406;2024-03-22T01:53:27;4.45;;;1.40;;
79220;SDS011;72175;52.118;5.406;2024-03-22T01:55:53;3.58;;;1.23;;
79220;SDS011;72175;52.118;5.406;2024-03-22T01:58:19;3.83;;;0.95;;
79220;SDS011;72175;52.118;5.406;2024-03-22T02:03:11;3.60;;;1.23;;
79220;SDS011;72175;52.118;5.406;2024-03-22T02:05:36;4.10;;;1.00;;
79220;SDS011;72175;52.118;5.406;2024-03-22T02:10:27;4.57;;;1.05;;
79220;SDS011;72175;52.118;5.406;2024-03-22T02:15:18;3.63;;;1.20;;
79220;SDS011;72175;52.118;5.406;2024-03-22T02:20:09;4.75;;;1.60;;
79220;SDS011;72175;52.118;5.406;2024-03-22T02:22:37;4.25;;;1.70;;
79220;SDS011;72175;52.118;5.406;2024-03-22T02:25:03;3.42;;;1.55;;
79220;SDS011;72175;52.118;5.406;2024-03-22T02:27:29;3.55;;;1.05;;
79220;SDS011;72175;52.118;5.406;2024-03-22T02:29:55;4.30;;;1.88;;
79220;SDS011;72175;52.118;5.406;2024-03-22T02:32:20;4.10;;;1.42;;
79220;SDS011;72175;52.118;5.406;2024-03-22T02:34:46;3.45;;;0.80;;
79220;SDS011;72175;52.118;5.406;2024-03-22T02:39:37;4.00;;;1.60;;
79220;SDS011;72175;52.118;5.406;2024-03-22T02:44:28;4.18;;;1.42;;
79220;SDS011;72175;52.118;5.406;2024-03-22T02:46:53;3.30;;;1.00;;
79220;SDS011;72175;52.118;5.406;2024-03-22T02:49:19;4.05;;;1.10;;
79220;SDS011;72175;52.118;5.406;2024-03-22T02:51:44;4.25;;;1.98;;
79220;SDS011;72175;52.118;5.406;2024-03-22T02:54:10;4.57;;;1.30;;
79220;SDS011;72175;52.118;5.406;2024-03-22T02:56:36;3.55;;;1.17;;
79220;SDS011;72175;52.118;5.406;2024-03-22T02:59:01;3.95;;;1.02;;
79220;SDS011;72175;52.118;5.406;2024-03-22T03:01:27;4.05;;;1.02;;
79220;SDS011;72175;52.118;5.406;2024-03-22T03:03:52;4.65;;;0.98;;
79220;SDS011;72175;52.118;5.406;2024-03-22T03:06:18;3.50;;;0.90;;
79220;SDS011;72175;52.118;5.406;2024-03-22T03:08:45;3.78;;;1.27;;
79220;SDS011;72175;52.118;5.406;2024-03-22T03:11:11;4.15;;;1.63;;
79220;SDS011;72175;52.118;5.406;2024-03-22T03:13:37;4.20;;;1.65;;
79220;SDS011;72175;52.118;5.406;2024-03-22T03:18:28;3.83;;;1.45;;
79220;SDS011;72175;52.118;5.406;2024-03-22T03:20:53;3.83;;;0.90;;
79220;SDS011;72175;52.118;5.406;2024-03-22T03:23:19;3.97;;;1.15;;
79220;SDS011;72175;52.118;5.406;2024-03-22T03:25:45;3.75;;;0.85;;
79220;SDS011;72175;52.118;5.406;2024-03-22T03:28:11;4.65;;;1.60;;
79220;SDS011;72175;52.118;5.406;2024-03-22T03:30:38;4.40;;;1.05;;
79220;SDS011;72175;52.118;5.406;2024-03-22T03:33:04;4.28;;;1.13;;
79220;SDS011;72175;52.118;5.406;2024-03-22T03:37:55;4.97;;;1.80;;
79220;SDS011;72175;52.118;5.406;2024-03-22T03:42:53;3.67;;;1.52;;
79220;SDS011;72175;52.118;5.406;2024-03-22T03:45:19;4.35;;;1.92;;
79220;SDS011;72175;52.118;5.406;2024-03-22T03:47:44;4.97;;;1.02;;
79220;SDS011;72175;52.118;5.406;2024-03-22T03:50:10;4.30;;;1.10;;
79220;SDS011;72175;52.118;5.406;2024-03-22T03:55:01;4.55;;;2.00;;
79220;SDS011;72175;52.118;5.406;2024-03-22T03:57:26;3.45;;;0.93;;
79220;SDS011;72175;52.118;5.406;2024-03-22T04:02:18;4.72;;;2.00;;
79220;SDS011;72175;52.118;5.406;2024-03-22T04:04:43;4.60;;;1.35;;
79220;SDS011;72175;52.118;5.406;2024-03-22T04:07:09;4.03;;;1.13;;
79220;SDS011;72175;52.118;5.406;2024-03-22T04:09:34;4.05;;;1.42;;
79220;SDS011;72175;52.118;5.406;2024-03-22T04:12:00;4.18;;;1.60;;
79220;SDS011;72175;52.118;5.406;2024-03-22T04:16:52;4.38;;;1.30;;
79220;SDS011;72175;52.118;5.406;2024-03-22T04:19:20;4.53;;;1.75;;
79220;SDS011;72175;52.118;5.406;2024-03-22T04:21:46;3.88;;;1.45;;
79220;SDS011;72175;52.118;5.406;2024-03-22T04:24:11;4.05;;;1.30;;
79220;SDS011;72175;52.118;5.406;2024-03-22T04:26:37;3.80;;;1.23;;
79220;SDS011;72175;52.118;5.406;2024-03-22T04:31:28;4.13;;;1.20;;
79220;SDS011;72175;52.118;5.406;2024-03-22T04:36:19;3.55;;;0.75;;
79220;SDS011;72175;52.118;5.406;2024-03-22T04:41:10;5.13;;;1.27;;
79220;SDS011;72175;52.118;5.406;2024-03-22T04:46:01;4.40;;;1.58;;
79220;SDS011;72175;52.118;5.406;2024-03-22T04:50:52;4.63;;;1.42;;
79220;SDS011;72175;52.118;5.406;2024-03-22T04:53:18;3.58;;;0.95;;
79220;SDS011;72175;52.118;5.406;2024-03-22T04:55:46;4.65;;;2.40;;
79220;SDS011;72175;52.118;5.406;2024-03-22T04:58:13;4.20;;;1.95;;
79220;SDS011;72175;52.118;5.406;2024-03-22T05:00:39;4.72;;;1.73;;
79220;SDS011;72175;52.118;5.406;2024-03-22T05:03:05;4.38;;;1.20;;
79220;SDS011;72175;52.118;5.406;2024-03-22T05:05:31;4.38;;;1.60;;
79220;SDS011;72175;52.118;5.406;2024-03-22T05:10:22;4.72;;;1.80;;
79220;SDS011;72175;52.118;5.406;2024-03-22T05:12:47;3.60;;;1.10;;
79220;SDS011;72175;52.118;5.406;2024-03-22T05:15:13;4.78;;;2.42;;
79220;SDS011;72175;52.118;5.406;2024-03-22T05:20:05;4.85;;;1.77;;
79220;SDS011;72175;52.118;5.406;2024-03-22T05:22:33;4.88;;;1.60;;
79220;SDS011;72175;52.118;5.406;2024-03-22T05:24:58;3.78;;;0.95;;
79220;SDS011;72175;52.118;5.406;2024-03-22T05:27:24;4.43;;;1.48;;
79220;SDS011;72175;52.118;5.406;2024-03-22T05:32:15;5.05;;;1.33;;
79220;SDS011;72175;52.118;5.406;2024-03-22T05:34:40;5.32;;;1.90;;
79220;SDS011;72175;52.118;5.406;2024-03-22T05:37:06;4.20;;;1.75;;
79220;SDS011;72175;52.118;5.406;2024-03-22T05:39:31;3.90;;;1.23;;
79220;SDS011;72175;52.118;5.406;2024-03-22T05:41:57;4.68;;;1.90;;
79220;SDS011;72175;52.118;5.406;2024-03-22T05:44:22;3.28;;;0.88;;
79220;SDS011;72175;52.118;5.406;2024-03-22T05:46:48;4.30;;;1.77;;
79220;SDS011;72175;52.118;5.406;2024-03-22T05:49:14;4.38;;;1.13;;
79220;SDS011;72175;52.118;5.406;2024-03-22T05:54:04;4.45;;;2.10;;
79220;SDS011;72175;52.118;5.406;2024-03-22T05:56:30;4.38;;;1.70;;
79220;SDS011;72175;52.118;5.406;2024-03-22T05:58:57;3.38;;;1.17;;
79220;SDS011;72175;52.118;5.406;2024-03-22T06:01:23;4.82;;;2.17;;
79220;SDS011;72175;52.118;5.406;2024-03-22T06:03:48;4.38;;;1.10;;
79220;SDS011;72175;52.118;5.406;2024-03-22T06:06:14;4.47;;;1.27;;
79220;SDS011;72175;52.118;5.406;2024-03-22T06:08:39;6.45;;;1.85;;
79220;SDS011;72175;52.118;5.406;2024-03-22T06:11:07;6.65;;;2.38;;
79220;SDS011;72175;52.118;5.406;2024-03-22T06:13:34;4.85;;;1.50;;
79220;SDS011;72175;52.118;5.406;2024-03-22T06:16:01;4.00;;;1.60;;
79220;SDS011;72175;52.118;5.406;2024-03-22T06:18:27;4.53;;;1.50;;
79220;SDS011;72175;52.118;5.406;2024-03-22T06:23:20;4.85;;;1.73;;
79220;SDS011;72175;52.118;5.406;2024-03-22T06:25:53;4.25;;;1.90;;
79220;SDS011;72175;52.118;5.406;2024-03-22T06:28:19;4.72;;;1.95;;
79220;SDS011;72175;52.118;5.406;2024-03-22T06:30:45;4.82;;;1.60;;
79220;SDS011;72175;52.118;5.406;2024-03-22T06:33:10;4.32;;;1.33;;
79220;SDS011;72175;52.118;5.406;2024-03-22T06:38:01;6.68;;;2.20;;
79220;SDS011;72175;52.118;5.406;2024-03-22T06:40:28;4.78;;;1.42;;
79220;SDS011;72175;52.118;5.406;2024-03-22T06:42:54;5.72;;;1.55;;
79220;SDS011;72175;52.118;5.406;2024-03-22T06:45:19;4.32;;;1.63;;
79220;SDS011;72175;52.118;5.406;2024-03-22T06:50:11;6.30;;;2.90;;
79220;SDS011;72175;52.118;5.406;2024-03-22T06:52:36;4.43;;;1.65;;
79220;SDS011;72175;52.118;5.406;2024-03-22T06:55:02;5.60;;;1.63;;
79220;SDS011;72175;52.118;5.406;2024-03-22T06:57:28;4.35;;;1.70;;
79220;SDS011;72175;52.118;5.406;2024-03-22T06:59:54;5.35;;;2.22;;
79220;SDS011;72175;52.118;5.406;2024-03-22T07:02:19;5.63;;;2.40;;
79220;SDS011;72175;52.118;5.406;2024-03-22T07:04:45;4.65;;;2.28;;
79220;SDS011;72175;52.118;5.406;2024-03-22T07:09:36;4.30;;;1.10;;
79220;SDS011;72175;52.118;5.406;2024-03-22T07:12:02;4.30;;;1.33;;
79220;SDS011;72175;52.118;5.406;2024-03-22T07:14:28;5.07;;;1.88;;
79220;SDS011;72175;52.118;5.406;2024-03-22T07:16:54;5.18;;;1.55;;
79220;SDS011;72175;52.118;5.406;2024-03-22T07:21:46;4.80;;;2.00;;
79220;SDS011;72175;52.118;5.406;2024-03-22T07:24:12;4.47;;;1.70;;
79220;SDS011;72175;52.118;5.406;2024-03-22T07:26:38;5.43;;;1.67;;
79220;SDS011;72175;52.118;5.406;2024-03-22T07:31:29;4.60;;;2.03;;
79220;SDS011;72175;52.118;5.406;2024-03-22T07:33:57;4.50;;;1.73;;
79220;SDS011;72175;52.118;5.406;2024-03-22T07:38:48;4.78;;;1.38;;
79220;SDS011;72175;52.118;5.406;2024-03-22T07:41:14;4.78;;;2.08;;
79220;SDS011;72175;52.118;5.406;2024-03-22T07:43:40;5.28;;;2.50;;
79220;SDS011;72175;52.118;5.406;2024-03-22T07:48:31;5.35;;;1.25;;
79220;SDS011;72175;52.118;5.406;2024-03-22T07:50:59;6.05;;;1.98;;
79220;SDS011;72175;52.118;5.406;2024-03-22T07:53:25;5.78;;;1.73;;
79220;SDS011;72175;52.118;5.406;2024-03-22T07:55:51;6.15;;;2.15;;
79220;SDS011;72175;52.118;5.406;2024-03-22T08:00:42;11.68;;;3.45;;
79220;SDS011;72175;52.118;5.406;2024-03-22T08:05:39;15.23;;;3.45;;
79220;SDS011;72175;52.118;5.406;2024-03-22T08:08:04;19.50;;;2.92;;
79220;SDS011;72175;52.118;5.406;2024-03-22T08:10:30;10.07;;;1.92;;
79220;SDS011;72175;52.118;5.406;2024-03-22T08:12:56;10.20;;;2.25;;
79220;SDS011;72175;52.118;5.406;2024-03-22T08:17:47;9.52;;;3.20;;
79220;SDS011;72175;52.118;5.406;2024-03-22T08:20:12;9.60;;;1.77;;
79220;SDS011;72175;52.118;5.406;2024-03-22T08:22:38;8.30;;;1.80;;
79220;SDS011;72175;52.118;5.406;2024-03-22T08:25:03;7.65;;;2.38;;
79220;SDS011;72175;52.118;5.406;2024-03-22T08:27:29;10.02;;;2.38;;
79220;SDS011;72175;52.118;5.406;2024-03-22T08:32:20;7.47;;;2.20;;
79220;SDS011;72175;52.118;5.406;2024-03-22T08:37:12;9.55;;;2.08;;
79220;SDS011;72175;52.118;5.406;2024-03-22T08:39:37;7.97;;;1.67;;
79220;SDS011;72175;52.118;5.406;2024-03-22T08:44:31;7.28;;;2.17;;
79220;SDS011;72175;52.118;5.406;2024-03-22T08:46:56;7.70;;;1.98;;
79220;SDS011;72175;52.118;5.406;2024-03-22T08:49:24;6.60;;;2.20;;
79220;SDS011;72175;52.118;5.406;2024-03-22T08:51:50;6.80;;;2.10;;
79220;SDS011;72175;52.118;5.406;2024-03-22T08:54:24;5.40;;;2.28;;
79220;SDS011;72175;52.118;5.406;2024-03-22T08:56:52;5.32;;;2.15;;
79220;SDS011;72175;52.118;5.406;2024-03-22T08:59:17;5.75;;;1.83;;
79220;SDS011;72175;52.118;5.406;2024-03-22T09:04:08;6.22;;;2.15;;
79220;SDS011;72175;52.118;5.406;2024-03-22T09:08:59;5.50;;;1.92;;
79220;SDS011;72175;52.118;5.406;2024-03-22T09:11:25;8.68;;;1.60;;
79220;SDS011;72175;52.118;5.406;2024-03-22T09:16:20;6.75;;;2.03;;
79220;SDS011;72175;52.118;5.406;2024-03-22T09:18:46;5.38;;;1.40;;
79220;SDS011;72175;52.118;5.406;2024-03-22T09:21:11;6.88;;;1.90;;
79220;SDS011;72175;52.118;5.406;2024-03-22T09:26:03;5.60;;;2.00;;
79220;SDS011;72175;52.118;5.406;2024-03-22T09:30:54;7.85;;;1.85;;
79220;SDS011;72175;52.118;5.406;2024-03-22T09:33:19;5.40;;;1.70;;
79220;SDS011;72175;52.118;5.406;2024-03-22T09:35:45;5.65;;;1.75;;
79220;SDS011;72175;52.118;5.406;2024-03-22T09:40:42;5.32;;;1.90;;
79220;SDS011;72175;52.118;5.406;2024-03-22T09:43:07;4.97;;;2.03;;
79220;SDS011;72175;52.118;5.406;2024-03-22T09:45:38;6.18;;;2.20;;
79220;SDS011;72175;52.118;5.406;2024-03-22T09:48:05;7.57;;;1.77;;
79220;SDS011;72175;52.118;5.406;2024-03-22T09:50:31;6.82;;;1.55;;
79220;SDS011;72175;52.118;5.406;2024-03-22T09:52:57;6.07;;;2.25;;
79220;SDS011;72175;52.118;5.406;2024-03-22T09:55:24;5.55;;;1.95;;
79220;SDS011;72175;52.118;5.406;2024-03-22T09:57:50;5.32;;;2.00;;
79220;SDS011;72175;52.118;5.406;2024-03-22T10:00:19;4.85;;;1.85;;
79220;SDS011;72175;52.118;5.406;2024-03-22T10:02:53;4.07;;;1.75;;
79220;SDS011;72175;52.118;5.406;2024-03-22T10:05:20;4.28;;;2.33;;
79220;SDS011;72175;52.118;5.406;2024-03-22T10:07:45;5.43;;;1.73;;
79220;SDS011;72175;52.118;5.406;2024-03-22T10:12:37;3.72;;;1.33;;
79220;SDS011;72175;52.118;5.406;2024-03-22T10:15:07;5.30;;;1.67;;
79220;SDS011;72175;52.118;5.406;2024-03-22T10:17:34;4.53;;;1.40;;
79220;SDS011;72175;52.118;5.406;2024-03-22T10:20:00;4.80;;;1.80;;
79220;SDS011;72175;52.118;5.406;2024-03-22T10:22:26;5.00;;;1.30;;
79220;SDS011;72175;52.118;5.406;2024-03-22T10:24:52;3.70;;;1.50;;
79220;SDS011;72175;52.118;5.406;2024-03-22T10:27:18;4.03;;;1.42;;
79220;SDS011;72175;52.118;5.406;2024-03-22T10:29:44;5.03;;;1.25;;
79220;SDS011;72175;52.118;5.406;2024-03-22T10:32:10;5.05;;;1.80;;
79220;SDS011;72175;52.118;5.406;2024-03-22T10:34:37;5.18;;;1.70;;
79220;SDS011;72175;52.118;5.406;2024-03-22T10:37:03;4.20;;;1.48;;
79220;SDS011;72175;52.118;5.406;2024-03-22T10:39:29;5.20;;;1.42;;
79220;SDS011;72175;52.118;5.406;2024-03-22T10:41:55;4.82;;;1.50;;
79220;SDS011;72175;52.118;5.406;2024-03-22T10:44:21;4.53;;;1.27;;
79220;SDS011;72175;52.118;5.406;2024-03-22T10:46:48;4.20;;;1.52;;
79220;SDS011;72175;52.118;5.406;2024-03-22T10:49:18;5.22;;;1.65;;
79220;SDS011;72175;52.118;5.406;2024-03-22T10:51:58;4.47;;;1.55;;
79220;SDS011;72175;52.118;5.406;2024-03-22T10:54:32;5.13;;;1.60;;
79220;SDS011;72175;52.118;5.406;2024-03-22T10:57:01;5.07;;;1.63;;
79220;SDS011;72175;52.118;5.406;2024-03-22T10:59:32;4.43;;;1.60;;
79220;SDS011;72175;52.118;5.406;2024-03-22T11:02:02;4.60;;;1.55;;
79220;SDS011;72175;52.118;5.406;2024-03-22T11:04:29;6.40;;;1.50;;
79220;SDS011;72175;52.118;5.406;2024-03-22T11:06:58;4.10;;;1.50;;
79220;SDS011;72175;52.118;5.406;2024-03-22T11:09:25;3.90;;;1.40;;
79220;SDS011;72175;52.118;5.406;2024-03-22T11:14:17;5.32;;;1.27;;
79220;SDS011;72175;52.118;5.406;2024-03-22T11:19:09;5.00;;;1.23;;
79220;SDS011;72175;52.118;5.406;2024-03-22T11:21:35;4.57;;;1.17;;
79220;SDS011;72175;52.118;5.406;2024-03-22T11:26:26;4.22;;;1.48;;
79220;SDS011;72175;52.118;5.406;2024-03-22T11:28:52;4.50;;;1.40;;
79220;SDS011;72175;52.118;5.406;2024-03-22T11:33:51;4.72;;;1.63;;
79220;SDS011;72175;52.118;5.406;2024-03-22T11:36:17;6.32;;;1.55;;
79220;SDS011;72175;52.118;5.406;2024-03-22T11:38:42;4.85;;;0.90;;
79220;SDS011;72175;52.118;5.406;2024-03-22T11:41:08;4.47;;;1.30;;
79220;SDS011;72175;52.118;5.406;2024-03-22T11:43:34;4.95;;;1.35;;
79220;SDS011;72175;52.118;5.406;2024-03-22T11:46:00;3.90;;;1.40;;
79220;SDS011;72175;52.118;5.406;2024-03-22T11:48:27;5.15;;;1.50;;
79220;SDS011;72175;52.118;5.406;2024-03-22T11:50:52;3.60;;;0.90;;
79220;SDS011;72175;52.118;5.406;2024-03-22T11:53:21;4.65;;;1.42;;
79220;SDS011;72175;52.118;5.406;2024-03-22T11:55:53;4.88;;;1.20;;
79220;SDS011;72175;52.118;5.406;2024-03-22T11:58:29;5.28;;;1.45;;
79220;SDS011;72175;52.118;5.406;2024-03-22T12:00:55;4.18;;;1.52;;
79220;SDS011;72175;52.118;5.406;2024-03-22T12:03:22;3.60;;;0.93;;
79220;SDS011;72175;52.118;5.406;2024-03-22T12:05:48;3.45;;;0.90;;
79220;SDS011;72175;52.118;5.406;2024-03-22T12:08:19;4.50;;;1.20;;
79220;SDS011;72175;52.118;5.406;2024-03-22T12:10:44;4.68;;;1.38;;
79220;SDS011;72175;52.118;5.406;2024-03-22T12:13:10;4.30;;;1.20;;
79220;SDS011;72175;52.118;5.406;2024-03-22T12:18:10;3.13;;;1.30;;
79220;SDS011;72175;52.118;5.406;2024-03-22T12:20:41;4.40;;;0.85;;
79220;SDS011;72175;52.118;5.406;2024-03-22T12:23:08;5.90;;;1.35;;
79220;SDS011;72175;52.118;5.406;2024-03-22T12:25:36;4.03;;;1.20;;
79220;SDS011;72175;52.118;5.406;2024-03-22T12:28:04;3.47;;;1.20;;
79220;SDS011;72175;52.118;5.406;2024-03-22T12:30:50;3.35;;;1.15;;
79220;SDS011;72175;52.118;5.406;2024-03-22T12:33:26;5.55;;;2.63;;
79220;SDS011;72175;52.118;5.406;2024-03-22T12:35:56;5.40;;;1.52;;
79220;SDS011;72175;52.118;5.406;2024-03-22T12:38:27;4.15;;;1.25;;
79220;SDS011;72175;52.118;5.406;2024-03-22T12:40:53;5.93;;;1.08;;
79220;SDS011;72175;52.118;5.406;2024-03-22T12:43:22;3.50;;;1.27;;
79220;SDS011;72175;52.118;5.406;2024-03-22T12:45:52;4.60;;;1.13;;
79220;SDS011;72175;52.118;5.406;2024-03-22T12:48:23;3.50;;;1.55;;
79220;SDS011;72175;52.118;5.406;2024-03-22T12:50:51;4.38;;;1.27;;
79220;SDS011;72175;52.118;5.406;2024-03-22T12:55:42;4.10;;;1.70;;
79220;SDS011;72175;52.118;5.406;2024-03-22T13:00:33;4.57;;;1.75;;
79220;SDS011;72175;52.118;5.406;2024-03-22T13:05:26;4.47;;;1.13;;
79220;SDS011;72175;52.118;5.406;2024-03-22T13:07:59;4.40;;;2.25;;
79220;SDS011;72175;52.118;5.406;2024-03-22T13:10:25;4.75;;;1.13;;
79220;SDS011;72175;52.118;5.406;2024-03-22T13:13:01;3.38;;;1.08;;
79220;SDS011;72175;52.118;5.406;2024-03-22T13:15:28;4.72;;;1.50;;
79220;SDS011;72175;52.118;5.406;2024-03-22T13:17:55;4.53;;;1.30;;
79220;SDS011;72175;52.118;5.406;2024-03-22T13:20:21;5.70;;;0.90;;
79220;SDS011;72175;52.118;5.406;2024-03-22T13:22:48;4.05;;;1.80;;
79220;SDS011;72175;52.118;5.406;2024-03-22T13:25:14;4.70;;;1.55;;
79220;SDS011;72175;52.118;5.406;2024-03-22T13:27:40;3.92;;;1.27;;
79220;SDS011;72175;52.118;5.406;2024-03-22T13:32:38;5.00;;;1.30;;
79220;SDS011;72175;52.118;5.406;2024-03-22T13:35:04;4.07;;;1.20;;
79220;SDS011;72175;52.118;5.406;2024-03-22T13:37:31;5.30;;;1.52;;
79220;SDS011;72175;52.118;5.406;2024-03-22T13:39:57;7.13;;;1.42;;
79220;SDS011;72175;52.118;5.406;2024-03-22T13:42:23;4.63;;;1.48;;
79220;SDS011;72175;52.118;5.406;2024-03-22T13:44:49;4.40;;;1.02;;
79220;SDS011;72175;52.118;5.406;2024-03-22T13:47:14;4.13;;;1.20;;
79220;SDS011;72175;52.118;5.406;2024-03-22T13:49:40;5.60;;;0.90;;
79220;SDS011;72175;52.118;5.406;2024-03-22T13:52:08;4.22;;;0.80;;
79220;SDS011;72175;52.118;5.406;2024-03-22T13:54:34;6.38;;;1.50;;
79220;SDS011;72175;52.118;5.406;2024-03-22T13:57:07;3.13;;;0.90;;
79220;SDS011;72175;52.118;5.406;2024-03-22T13:59:32;4.85;;;1.45;;
79220;SDS011;72175;52.118;5.406;2024-03-22T14:01:58;4.75;;;0.73;;
79220;SDS011;72175;52.118;5.406;2024-03-22T14:04:26;8.18;;;0.90;;
79220;SDS011;72175;52.118;5.406;2024-03-22T14:06:54;5.60;;;1.02;;
79220;SDS011;72175;52.118;5.406;2024-03-22T14:09:19;5.18;;;1.00;;
79220;SDS011;72175;52.118;5.406;2024-03-22T14:11:45;3.25;;;1.02;;
79220;SDS011;72175;52.118;5.406;2024-03-22T14:14:13;4.88;;;1.17;;
79220;SDS011;72175;52.118;5.406;2024-03-22T14:16:40;3.83;;;0.95;;
79220;SDS011;72175;52.118;5.406;2024-03-22T14:19:09;3.60;;;1.17;;
79220;SDS011;72175;52.118;5.406;2024-03-22T14:21:35;8.27;;;1.13;;
79220;SDS011;72175;52.118;5.406;2024-03-22T14:24:03;3.63;;;1.08;;
79220;SDS011;72175;52.118;5.406;2024-03-22T14:26:30;3.90;;;0.93;;
79220;SDS011;72175;52.118;5.406;2024-03-22T14:28:57;3.88;;;0.75;;
79220;SDS011;72175;52.118;5.406;2024-03-22T14:31:23;3.58;;;0.82;;
79220;SDS011;72175;52.118;5.406;2024-03-22T14:33:49;4.43;;;1.10;;
79220;SDS011;72175;52.118;5.406;2024-03-22T14:36:17;4.45;;;1.02;;
79220;SDS011;72175;52.118;5.406;2024-03-22T14:38:43;3.95;;;1.10;;
79220;SDS011;72175;52.118;5.406;2024-03-22T14:41:08;4.00;;;0.82;;
79220;SDS011;72175;52.118;5.406;2024-03-22T14:43:34;5.18;;;0.90;;
79220;SDS011;72175;52.118;5.406;2024-03-22T14:46:00;4.10;;;1.38;;
79220;SDS011;72175;52.118;5.406;2024-03-22T14:48:28;4.20;;;0.73;;
79220;SDS011;72175;52.118;5.406;2024-03-22T14:50:54;4.93;;;1.05;;
79220;SDS011;72175;52.118;5.406;2024-03-22T14:53:20;3.65;;;0.63;;
79220;SDS011;72175;52.118;5.406;2024-03-22T14:55:53;4.50;;;1.25;;
79220;SDS011;72175;52.118;5.406;2024-03-22T14:58:19;3.38;;;1.13;;
79220;SDS011;72175;52.118;5.406;2024-03-22T15:00:55;3.25;;;0.82;;
79220;SDS011;72175;52.118;5.406;2024-03-22T15:03:25;4.15;;;0.82;;
79220;SDS011;72175;52.118;5.406;2024-03-22T15:05:50;5.20;;;0.85;;
79220;SDS011;72175;52.118;5.406;2024-03-22T15:08:26;5.18;;;0.80;;
79220;SDS011;72175;52.118;5.406;2024-03-22T15:11:01;5.20;;;1.08;;
79220;SDS011;72175;52.118;5.406;2024-03-22T15:13:41;3.38;;;0.70;;
79220;SDS011;72175;52.118;5.406;2024-03-22T15:16:07;5.80;;;1.02;;
79220;SDS011;72175;52.118;5.406;2024-03-22T15:20:58;3.15;;;0.70;;
79220;SDS011;72175;52.118;5.406;2024-03-22T15:23:23;3.72;;;0.90;;
79220;SDS011;72175;52.118;5.406;2024-03-22T15:25:49;3.30;;;1.23;;
79220;SDS011;72175;52.118;5.406;2024-03-22T15:28:15;3.20;;;0.80;;
79220;SDS011;72175;52.118;5.406;2024-03-22T15:30:41;3.47;;;0.85;;
79220;SDS011;72175;52.118;5.406;2024-03-22T15:33:10;3.75;;;0.60;;
79220;SDS011;72175;52.118;5.406;2024-03-22T15:35:36;3.22;;;0.95;;
79220;SDS011;72175;52.118;5.406;2024-03-22T15:38:02;5.13;;;0.70;;
79220;SDS011;72175;52.118;5.406;2024-03-22T15:40:30;3.40;;;0.90;;
79220;SDS011;72175;52.118;5.406;2024-03-22T15:42:58;3.67;;;1.05;;
79220;SDS011;72175;52.118;5.406;2024-03-22T15:45:26;5.95;;;0.73;;
79220;SDS011;72175;52.118;5.406;2024-03-22T15:47:58;3.40;;;0.95;;
79220;SDS011;72175;52.118;5.406;2024-03-22T15:50:24;5.47;;;1.10;;
79220;SDS011;72175;52.118;5.406;2024-03-22T15:52:52;4.00;;;1.15;;
79220;SDS011;72175;52.118;5.406;2024-03-22T15:55:17;4.07;;;0.70;;
79220;SDS011;72175;52.118;5.406;2024-03-22T15:57:43;3.78;;;0.60;;
79220;SDS011;72175;52.118;5.406;2024-03-22T16:00:09;4.28;;;0.70;;
79220;SDS011;72175;52.118;5.406;2024-03-22T16:02:38;3.17;;;0.65;;
79220;SDS011;72175;52.118;5.406;2024-03-22T16:05:04;2.92;;;0.73;;
79220;SDS011;72175;52.118;5.406;2024-03-22T16:07:30;5.28;;;1.10;;
79220;SDS011;72175;52.118;5.406;2024-03-22T16:09:56;3.38;;;0.57;;
79220;SDS011;72175;52.118;5.406;2024-03-22T16:12:22;3.78;;;0.68;;
79220;SDS011;72175;52.118;5.406;2024-03-22T16:14:47;4.65;;;1.23;;
79220;SDS011;72175;52.118;5.406;2024-03-22T16:17:13;3.67;;;0.88;;
79220;SDS011;72175;52.118;5.406;2024-03-22T16:19:40;4.30;;;0.82;;
79220;SDS011;72175;52.118;5.406;2024-03-22T16:22:18;3.97;;;0.90;;
79220;SDS011;72175;52.118;5.406;2024-03-22T16:24:44;3.72;;;1.63;;
79220;SDS011;72175;52.118;5.406;2024-03-22T16:29:35;3.70;;;0.88;;
79220;SDS011;72175;52.118;5.406;2024-03-22T16:32:00;6.38;;;0.77;;
79220;SDS011;72175;52.118;5.406;2024-03-22T16:34:28;3.80;;;0.90;;
79220;SDS011;72175;52.118;5.406;2024-03-22T16:36:53;4.13;;;0.70;;
79220;SDS011;72175;52.118;5.406;2024-03-22T16:39:20;3.78;;;0.63;;
79220;SDS011;72175;52.118;5.406;2024-03-22T16:41:46;3.92;;;1.35;;
79220;SDS011;72175;52.118;5.406;2024-03-22T16:44:13;2.72;;;0.65;;
79220;SDS011;72175;52.118;5.406;2024-03-22T16:46:40;3.22;;;0.77;;
79220;SDS011;72175;52.118;5.406;2024-03-22T16:49:09;4.55;;;0.73;;
79220;SDS011;72175;52.118;5.406;2024-03-22T16:51:35;3.30;;;0.90;;
79220;SDS011;72175;52.118;5.406;2024-03-22T16:54:03;4.00;;;0.77;;
79220;SDS011;72175;52.118;5.406;2024-03-22T16:56:29;3.65;;;0.82;;
79220;SDS011;72175;52.118;5.406;2024-03-22T16:58:55;3.60;;;0.52;;
79220;SDS011;72175;52.118;5.406;2024-03-22T17:01:20;3.13;;;0.70;;
79220;SDS011;72175;52.118;5.406;2024-03-22T17:06:12;3.90;;;0.82;;
79220;SDS011;72175;52.118;5.406;2024-03-22T17:08:38;3.15;;;1.00;;
79220;SDS011;72175;52.118;5.406;2024-03-22T17:11:04;3.95;;;0.60;;
79220;SDS011;72175;52.118;5.406;2024-03-22T17:13:31;3.92;;;0.73;;
79220;SDS011;72175;52.118;5.406;2024-03-22T17:15:56;4.55;;;1.13;;
79220;SDS011;72175;52.118;5.406;2024-03-22T17:18:23;3.38;;;0.60;;
79220;SDS011;72175;52.118;5.406;2024-03-22T17:20:52;2.92;;;0.75;;
79220;SDS011;72175;52.118;5.406;2024-03-22T17:23:18;3.55;;;0.98;;